Time;durP1;ratioP1;P1;durP2;ratioP2;P2;SDS_P1;SDS_P2;PMS_P1;PMS_P2;Temp;Humidity;BMP_temperature;BMP_pressure;BME280_temperature;BME280_humidity;BME280_pressure;Samples;Min_cycle;Max_cycle;Signal;HPM_P1;HPM_P2
2022/11/20 00:00:11;;;;;;;44.17;39.57;;;-1.30;99.90;;;;;;5121912;27;20397;-78
2022/11/20 00:02:36;;;;;;;46.20;41.30;;;-1.30;99.90;;;;;;5089180;27;20115;-78
2022/11/20 00:05:02;;;;;;;44.43;39.83;;;-1.30;99.90;;;;;;5082777;27;21012;-78
2022/11/20 00:07:31;;;;;;;37.97;34.17;;;-1.30;99.90;;;;;;5116012;27;20039;-78
2022/11/20 00:09:56;;;;;;;38.43;34.47;;;-1.40;99.90;;;;;;5096815;27;20091;-78
2022/11/20 00:12:22;;;;;;;37.27;33.40;;;-1.30;99.90;;;;;;5119811;27;20035;-78
2022/11/20 00:14:48;;;;;;;39.87;35.70;;;-1.30;99.90;;;;;;5140981;27;20520;-78
2022/11/20 00:17:14;;;;;;;33.20;29.70;;;-1.30;99.90;;;;;;5091722;27;20127;-78
2022/11/20 00:19:40;;;;;;;36.77;32.97;;;-1.20;99.90;;;;;;5082727;27;20085;-78
2022/11/20 00:22:05;;;;;;;35.60;31.93;;;-1.30;99.90;;;;;;5127127;27;20035;-78
2022/11/20 00:24:31;;;;;;;33.70;30.10;;;-1.20;99.90;;;;;;5109999;27;20058;-78
2022/11/20 00:26:57;;;;;;;39.57;35.37;;;-1.20;99.90;;;;;;5144118;27;20533;-78
2022/11/20 00:29:22;;;;;;;38.37;34.20;;;-1.20;99.90;;;;;;5064490;27;20106;-79
2022/11/20 00:31:48;;;;;;;35.13;31.33;;;-1.20;99.90;;;;;;5101634;27;20051;-78
2022/11/20 00:34:14;;;;;;;33.13;29.17;;;-1.10;99.90;;;;;;5097556;27;20106;-78
2022/11/20 00:36:43;;;;;;;34.60;30.90;;;-1.10;99.90;;;;;;5110847;27;20540;-78
2022/11/20 00:39:08;;;;;;;31.57;28.27;;;-1.10;99.90;;;;;;5114928;27;20078;-78
2022/11/20 00:41:34;;;;;;;28.13;25.13;;;-1.10;99.90;;;;;;5098493;27;20071;-78
2022/11/20 00:44:00;;;;;;;29.23;26.13;;;-1.10;99.90;;;;;;5079672;27;20043;-78
2022/11/20 00:46:27;;;;;;;26.87;24.10;;;-1.10;99.90;;;;;;5097694;27;20057;-78
2022/11/20 00:48:53;;;;;;;27.97;25.03;;;-1.00;99.90;;;;;;5090991;27;20059;-78
2022/11/20 00:51:22;;;;;;;26.47;23.67;;;-1.00;99.90;;;;;;5130885;27;20040;-78
2022/11/20 00:53:48;;;;;;;25.87;23.23;;;-1.00;99.90;;;;;;5093147;27;20039;-79
2022/11/20 00:56:16;;;;;;;32.30;28.90;;;-0.90;99.90;;;;;;5132023;27;20279;-79
2022/11/20 00:58:44;;;;;;;29.20;26.17;;;-0.90;99.90;;;;;;5102206;27;20059;-78
2022/11/20 01:01:19;;;;;;;27.63;24.73;;;-0.80;99.90;;;;;;5102450;27;20049;-79
2022/11/20 01:03:48;;;;;;;26.23;23.50;;;-0.90;99.90;;;;;;5102754;27;20043;-79
2022/11/20 01:06:20;;;;;;;24.50;21.90;;;-0.80;99.90;;;;;;5113759;27;20264;-79
2022/11/20 01:08:48;;;;;;;28.43;25.50;;;-0.80;99.90;;;;;;5117127;27;20045;-79
2022/11/20 01:11:20;;;;;;;27.17;24.33;;;-0.80;99.90;;;;;;5096107;27;20307;-78
2022/11/20 01:13:47;;;;;;;27.17;24.27;;;-0.80;99.90;;;;;;5112914;27;20051;-78
2022/11/20 01:16:21;;;;;;;26.37;23.53;;;-0.70;99.90;;;;;;5090115;27;20079;-78
2022/11/20 01:18:50;;;;;;;27.77;24.87;;;-0.70;99.90;;;;;;5115128;27;20074;-78
2022/11/20 01:21:18;;;;;;;31.37;27.73;;;-0.70;99.90;;;;;;5117157;27;20038;-78
2022/11/20 01:23:48;;;;;;;30.57;27.33;;;-0.70;99.90;;;;;;5111332;27;20043;-78
2022/11/20 01:26:17;;;;;;;28.63;25.58;;;-0.70;99.90;;;;;;5101204;27;20043;-78
2022/11/20 01:28:43;;;;;;;30.20;27.00;;;-0.70;99.90;;;;;;5098471;27;20047;-78
2022/11/20 01:31:15;;;;;;;27.93;24.40;;;-0.70;99.90;;;;;;5084272;27;20039;-79
2022/11/20 01:33:42;;;;;;;28.10;25.20;;;-0.70;99.90;;;;;;5116316;27;20049;-79
2022/11/20 01:36:09;;;;;;;32.10;28.67;;;-0.70;99.90;;;;;;5095633;27;20068;-78
2022/11/20 01:38:34;;;;;;;33.67;28.03;;;-0.70;99.90;;;;;;5088379;27;20058;-79
2022/11/20 01:41:01;;;;;;;28.77;25.67;;;-0.60;99.90;;;;;;5125694;27;20047;-79
2022/11/20 01:43:28;;;;;;;29.07;26.03;;;-0.70;99.90;;;;;;5114582;27;20738;-78
2022/11/20 01:46:16;;;;;;;28.00;25.13;;;-0.60;99.90;;;;;;5093912;27;20447;-79
2022/11/20 01:48:53;;;;;;;31.47;28.17;;;-0.60;99.90;;;;;;5115243;27;20047;-79
2022/11/20 01:51:31;;;;;;;34.93;30.53;;;-0.60;99.90;;;;;;5094452;27;20107;-79
2022/11/20 01:54:00;;;;;;;30.77;27.33;;;-0.60;99.90;;;;;;5117838;27;20094;-79
2022/11/20 01:56:31;;;;;;;28.57;25.57;;;-0.60;99.90;;;;;;5119061;27;20047;-78
2022/11/20 01:59:01;;;;;;;31.73;28.30;;;-0.60;99.90;;;;;;5100149;27;20050;-78
2022/11/20 02:01:27;;;;;;;28.88;25.88;;;-0.60;99.90;;;;;;5103711;27;20035;-78
2022/11/20 02:03:54;;;;;;;30.97;27.57;;;-0.60;99.90;;;;;;5126172;27;20031;-78
2022/11/20 02:06:25;;;;;;;32.80;29.37;;;-0.50;99.90;;;;;;5118175;27;20051;-79
2022/11/20 02:08:52;;;;;;;27.67;24.77;;;-0.60;99.90;;;;;;5112876;27;21019;-79
2022/11/20 02:11:18;;;;;;;31.77;28.37;;;-0.50;99.90;;;;;;5144615;27;20435;-79
2022/11/20 02:13:44;;;;;;;31.20;27.90;;;-0.50;99.90;;;;;;5107664;27;20130;-79
2022/11/20 02:16:33;;;;;;;31.10;27.97;;;-0.50;99.90;;;;;;5108099;27;20750;-78
2022/11/20 02:19:01;;;;;;;29.47;26.30;;;-0.50;99.90;;;;;;5109915;27;20176;-77
2022/11/20 02:21:37;;;;;;;27.93;25.03;;;-0.50;99.90;;;;;;5100154;27;20125;-77
2022/11/20 02:24:09;;;;;;;26.90;24.10;;;-0.50;99.90;;;;;;5121730;27;20043;-78
2022/11/20 02:26:54;;;;;;;29.17;26.13;;;-0.40;99.90;;;;;;5099799;27;20047;-78
2022/11/20 02:29:33;;;;;;;31.50;28.00;;;-0.40;99.90;;;;;;5129732;27;20677;-78
2022/11/20 02:32:01;;;;;;;27.97;25.00;;;-0.40;99.90;;;;;;5125069;27;20575;-78
2022/11/20 02:34:28;;;;;;;32.10;28.70;;;-0.40;99.90;;;;;;5117445;27;20055;-78
2022/11/20 02:36:55;;;;;;;26.10;23.40;;;-0.40;99.90;;;;;;5121062;27;20042;-78
2022/11/20 02:39:24;;;;;;;28.07;25.10;;;-0.40;99.90;;;;;;5097352;27;20058;-78
2022/11/20 02:41:53;;;;;;;29.20;26.10;;;-0.40;99.90;;;;;;5096882;27;20152;-78
2022/11/20 02:44:25;;;;;;;30.00;26.97;;;-0.30;99.90;;;;;;5107298;27;20051;-78
2022/11/20 02:46:50;;;;;;;33.57;29.90;;;-0.40;99.90;;;;;;5102310;27;20055;-79
2022/11/20 02:49:16;;;;;;;25.67;23.07;;;-0.40;99.90;;;;;;5108441;27;20047;-78
2022/11/20 02:51:42;;;;;;;26.53;23.80;;;-0.30;99.90;;;;;;5081723;27;20032;-78
2022/11/20 02:54:08;;;;;;;27.07;24.27;;;-0.30;99.90;;;;;;5091391;27;20043;-78
2022/11/20 02:56:34;;;;;;;30.60;27.40;;;-0.30;99.90;;;;;;5072608;27;20043;-78
2022/11/20 02:58:59;;;;;;;29.27;26.33;;;-0.30;99.90;;;;;;5123702;27;20118;-78
2022/11/20 03:01:25;;;;;;;30.80;27.60;;;-0.30;99.90;;;;;;5113142;27;20044;-79
2022/11/20 03:03:54;;;;;;;26.90;24.07;;;-0.30;99.90;;;;;;5128005;27;20117;-79
2022/11/20 03:06:20;;;;;;;26.33;23.63;;;-0.40;99.90;;;;;;5102776;28;20118;-79
2022/11/20 03:08:45;;;;;;;29.23;26.23;;;-0.30;99.90;;;;;;5103182;27;20052;-78
2022/11/20 03:11:11;;;;;;;32.83;28.47;;;-0.20;99.90;;;;;;5089354;27;20039;-78
2022/11/20 03:13:37;;;;;;;32.17;28.73;;;-0.30;99.90;;;;;;5114365;27;20043;-78
2022/11/20 03:16:11;;;;;;;28.50;25.60;;;-0.30;99.90;;;;;;5079779;28;20089;-78
2022/11/20 03:18:37;;;;;;;31.37;26.93;;;-0.30;99.90;;;;;;5101696;27;20065;-78
2022/11/20 03:21:03;;;;;;;27.77;24.97;;;-0.30;99.90;;;;;;5110180;27;20051;-77
2022/11/20 03:23:31;;;;;;;25.63;23.03;;;-0.30;99.90;;;;;;5097444;27;20818;-77
2022/11/20 03:26:11;;;;;;;25.50;22.90;;;-0.30;99.90;;;;;;5071228;27;20415;-78
2022/11/20 03:28:37;;;;;;;27.53;24.60;;;-0.20;99.90;;;;;;5138606;27;20151;-79
2022/11/20 03:31:11;;;;;;;27.10;24.30;;;-0.30;99.90;;;;;;5114438;27;20170;-78
2022/11/20 03:33:37;;;;;;;26.00;23.30;;;-0.20;99.90;;;;;;5148172;27;20106;-79
2022/11/20 03:36:06;;;;;;;28.20;25.20;;;-0.20;99.90;;;;;;5098304;27;20486;-78
2022/11/20 03:38:32;;;;;;;26.50;23.80;;;-0.20;99.90;;;;;;5117820;27;20054;-78
2022/11/20 03:41:04;;;;;;;26.97;24.37;;;-0.20;99.90;;;;;;5116429;27;20053;-78
2022/11/20 03:43:31;;;;;;;24.50;22.00;;;-0.20;99.90;;;;;;5098169;27;20043;-79
2022/11/20 03:45:57;;;;;;;23.87;21.37;;;-0.20;99.90;;;;;;5116872;27;20050;-78
2022/11/20 03:48:23;;;;;;;26.40;23.70;;;-0.20;99.90;;;;;;5114500;27;20099;-78
2022/11/20 03:50:49;;;;;;;24.57;22.07;;;-0.20;99.90;;;;;;5145007;27;20043;-78
2022/11/20 03:53:15;;;;;;;26.80;24.07;;;-0.20;99.90;;;;;;5088845;28;20043;-79
2022/11/20 03:55:41;;;;;;;24.07;21.57;;;-0.20;99.90;;;;;;5106412;27;20055;-78
2022/11/20 03:58:08;;;;;;;24.83;22.33;;;-0.20;99.90;;;;;;5122422;27;20046;-78
2022/11/20 04:00:34;;;;;;;24.47;21.97;;;-0.20;99.90;;;;;;5117735;27;20171;-78
2022/11/20 04:03:01;;;;;;;23.30;21.00;;;-0.20;99.90;;;;;;5097425;27;20067;-78
2022/11/20 04:05:27;;;;;;;25.23;22.63;;;-0.20;99.90;;;;;;5112927;27;20082;-79
2022/11/20 04:07:53;;;;;;;26.00;23.37;;;-0.10;99.90;;;;;;5104008;27;20055;-78
2022/11/20 04:10:18;;;;;;;27.33;24.47;;;-0.10;99.90;;;;;;5109335;27;20665;-78
2022/11/20 04:12:44;;;;;;;26.47;23.87;;;-0.10;99.90;;;;;;5130459;27;20618;-78
2022/11/20 04:15:10;;;;;;;26.07;23.43;;;-0.10;99.90;;;;;;5140270;27;20035;-78
2022/11/20 04:17:36;;;;;;;24.27;21.80;;;-0.10;99.90;;;;;;5115122;27;20095;-78
2022/11/20 04:20:02;;;;;;;27.67;24.80;;;-0.10;99.90;;;;;;5106465;27;20045;-78
2022/11/20 04:22:31;;;;;;;26.23;23.57;;;-0.10;99.90;;;;;;5094859;27;20051;-78
2022/11/20 04:24:57;;;;;;;23.60;21.30;;;-0.10;99.90;;;;;;5077444;27;20497;-77
2022/11/20 04:27:22;;;;;;;23.93;21.53;;;-0.10;99.90;;;;;;5110837;27;20038;-78
2022/11/20 04:29:48;;;;;;;27.40;24.57;;;0.00;99.90;;;;;;5119723;27;20379;-78
2022/11/20 04:32:14;;;;;;;25.67;23.03;;;-0.10;99.90;;;;;;5118594;27;20047;-78
2022/11/20 04:34:39;;;;;;;29.37;26.23;;;-0.10;99.90;;;;;;5138739;27;20465;-79
2022/11/20 04:37:05;;;;;;;27.10;24.30;;;-0.10;99.90;;;;;;5110207;27;20617;-79
2022/11/20 04:39:31;;;;;;;28.40;25.50;;;-0.10;99.90;;;;;;5130884;27;20738;-78
2022/11/20 04:44:41;;;;;;;25.17;22.67;;;-0.10;99.90;;;;;;5109213;27;20395;-78
2022/11/20 04:47:07;;;;;;;23.83;21.50;;;-0.10;99.90;;;;;;5138963;27;20088;-78
2022/11/20 04:49:33;;;;;;;25.47;22.83;;;-0.10;99.90;;;;;;5088187;27;20078;-78
2022/11/20 04:51:59;;;;;;;26.80;24.10;;;-0.10;99.90;;;;;;5100453;27;20043;-78
2022/11/20 04:54:25;;;;;;;24.43;21.93;;;0.00;99.90;;;;;;5094644;27;20054;-78
2022/11/20 04:56:51;;;;;;;25.47;22.77;;;0.00;99.90;;;;;;5094471;27;20497;-78
2022/11/20 04:59:16;;;;;;;24.77;22.17;;;-0.10;99.90;;;;;;5082133;27;20175;-78
2022/11/20 05:01:42;;;;;;;25.43;22.93;;;0.00;99.90;;;;;;5114560;27;20050;-78
2022/11/20 05:04:08;;;;;;;24.67;22.27;;;0.00;99.90;;;;;;5099160;27;20459;-78
2022/11/20 05:06:34;;;;;;;26.77;23.70;;;-0.10;99.90;;;;;;5084979;28;20401;-78
2022/11/20 05:09:00;;;;;;;25.47;22.87;;;0.00;99.90;;;;;;5121940;27;20096;-78
2022/11/20 05:11:28;;;;;;;23.27;20.77;;;0.00;99.90;;;;;;5089927;28;20043;-78
2022/11/20 05:13:55;;;;;;;24.67;22.20;;;0.00;99.90;;;;;;5079588;28;20333;-78
2022/11/20 05:16:23;;;;;;;24.23;21.07;;;0.00;99.90;;;;;;5115080;27;20078;-78
2022/11/20 05:18:50;;;;;;;21.93;19.50;;;0.00;99.90;;;;;;5116530;27;20043;-78
2022/11/20 05:21:16;;;;;;;24.87;22.37;;;0.00;99.90;;;;;;5111431;27;20047;-78
2022/11/20 05:23:42;;;;;;;25.30;22.60;;;0.00;99.90;;;;;;5116196;27;20058;-78
2022/11/20 05:26:17;;;;;;;23.57;21.07;;;0.00;99.90;;;;;;5094295;27;20379;-78
2022/11/20 05:28:43;;;;;;;24.57;21.97;;;0.00;99.90;;;;;;5104438;27;20055;-78
2022/11/20 05:31:14;;;;;;;22.70;20.37;;;0.00;99.90;;;;;;5098980;27;20359;-78
2022/11/20 05:33:41;;;;;;;22.33;20.07;;;0.00;99.90;;;;;;5078519;27;20147;-77
2022/11/20 05:36:09;;;;;;;23.40;21.00;;;0.00;99.90;;;;;;5116811;27;20581;-77
2022/11/20 05:38:35;;;;;;;23.90;21.57;;;0.00;99.90;;;;;;5121772;27;20050;-77
2022/11/20 05:41:12;;;;;;;24.87;22.27;;;0.10;99.90;;;;;;5081217;27;20036;-78
2022/11/20 05:43:40;;;;;;;21.50;19.30;;;0.00;99.90;;;;;;5118598;27;20557;-77
2022/11/20 05:46:07;;;;;;;22.77;20.40;;;0.00;99.90;;;;;;5131053;27;20123;-78
2022/11/20 05:48:34;;;;;;;25.73;23.10;;;0.00;99.90;;;;;;5106753;27;20054;-77
2022/11/20 05:51:01;;;;;;;23.50;21.13;;;0.00;99.90;;;;;;5126404;27;20581;-77
2022/11/20 05:53:27;;;;;;;23.00;20.70;;;0.20;99.90;;;;;;5100504;27;20039;-77
2022/11/20 05:56:04;;;;;;;23.83;21.23;;;0.00;99.90;;;;;;5112925;27;20417;-78
2022/11/20 05:58:31;;;;;;;23.37;20.97;;;0.00;99.90;;;;;;5143905;27;20347;-77
2022/11/20 06:01:04;;;;;;;23.07;20.60;;;0.00;99.90;;;;;;5113466;27;20059;-77
2022/11/20 06:03:29;;;;;;;24.80;22.20;;;0.10;99.90;;;;;;5114212;27;20536;-78
2022/11/20 06:05:55;;;;;;;21.77;19.57;;;0.10;99.90;;;;;;5117825;27;20046;-78
2022/11/20 06:08:21;;;;;;;23.20;20.90;;;0.10;99.90;;;;;;5101828;27;20084;-78
2022/11/20 06:10:47;;;;;;;26.83;23.97;;;0.10;99.90;;;;;;5118258;27;20081;-78
2022/11/20 06:13:12;;;;;;;24.80;22.30;;;0.20;99.90;;;;;;5097659;28;20063;-78
2022/11/20 06:15:38;;;;;;;24.57;22.17;;;0.10;99.90;;;;;;5119782;27;20067;-77
2022/11/20 06:18:04;;;;;;;24.47;22.00;;;0.10;99.90;;;;;;5105834;27;20044;-78
2022/11/20 06:20:30;;;;;;;25.27;22.57;;;0.10;99.90;;;;;;5103263;27;20055;-78
2022/11/20 06:22:56;;;;;;;23.17;20.80;;;0.10;99.90;;;;;;5078981;28;20055;-78
2022/11/20 06:25:21;;;;;;;24.20;21.80;;;0.10;99.90;;;;;;5144272;27;20480;-78
2022/11/20 06:27:47;;;;;;;23.07;20.77;;;0.20;99.90;;;;;;5092889;27;20043;-78
2022/11/20 06:30:13;;;;;;;22.90;20.60;;;0.10;99.90;;;;;;5088800;27;20050;-78
2022/11/20 06:32:39;;;;;;;22.40;19.87;;;0.10;99.90;;;;;;5102371;27;20127;-78
2022/11/20 06:35:06;;;;;;;22.87;20.57;;;0.10;99.90;;;;;;5089034;28;20044;-78
2022/11/20 06:37:32;;;;;;;21.90;19.60;;;0.10;99.90;;;;;;5126714;27;20684;-78
2022/11/20 06:39:58;;;;;;;21.77;19.57;;;0.20;99.90;;;;;;5118727;27;20051;-78
2022/11/20 06:42:27;;;;;;;21.30;19.10;;;0.20;99.90;;;;;;5086209;27;20051;-77
2022/11/20 06:44:53;;;;;;;20.53;18.43;;;0.20;99.90;;;;;;5083527;28;20134;-78
2022/11/20 06:47:19;;;;;;;21.37;19.27;;;0.20;99.90;;;;;;5084202;27;20900;-78
2022/11/20 06:49:44;;;;;;;21.23;19.13;;;0.20;99.90;;;;;;5101648;27;20051;-78
2022/11/20 06:52:10;;;;;;;20.53;18.53;;;0.20;99.90;;;;;;5090281;28;20473;-78
2022/11/20 06:54:36;;;;;;;20.37;18.27;;;0.20;99.90;;;;;;5116278;27;20047;-78
2022/11/20 06:57:01;;;;;;;21.67;19.40;;;0.20;99.90;;;;;;5122186;27;20394;-78
2022/11/20 06:59:27;;;;;;;21.17;18.93;;;0.20;99.90;;;;;;5086354;27;20267;-78
2022/11/20 07:01:53;;;;;;;19.67;17.77;;;0.30;99.90;;;;;;5112774;27;20039;-78
2022/11/20 07:04:22;;;;;;;24.97;19.23;;;0.30;99.90;;;;;;5099694;27;20043;-78
2022/11/20 07:06:48;;;;;;;22.10;19.80;;;0.20;99.90;;;;;;5113169;27;20054;-78
2022/11/20 07:09:14;;;;;;;20.50;18.40;;;0.30;99.90;;;;;;5116931;27;20045;-78
2022/11/20 07:11:39;;;;;;;21.93;19.63;;;0.20;99.90;;;;;;5117038;27;20035;-78
2022/11/20 07:14:05;;;;;;;22.60;20.33;;;0.20;99.90;;;;;;5105137;27;20183;-78
2022/11/20 07:16:31;;;;;;;21.87;19.67;;;0.20;99.90;;;;;;5114829;27;20507;-78
2022/11/20 07:18:57;;;;;;;22.20;20.00;;;0.30;99.90;;;;;;5117647;27;20050;-78
2022/11/20 07:21:23;;;;;;;21.07;18.90;;;0.20;99.90;;;;;;5107375;27;20043;-79
2022/11/20 07:23:49;;;;;;;21.57;19.37;;;0.30;99.90;;;;;;5114483;27;20401;-78
2022/11/20 07:26:15;;;;;;;22.73;20.33;;;0.20;99.90;;;;;;5113218;27;20035;-78
2022/11/20 07:28:44;;;;;;;21.37;19.27;;;0.30;99.90;;;;;;5084119;27;20470;-78
2022/11/20 07:31:10;;;;;;;22.37;20.17;;;0.30;99.90;;;;;;5114444;27;20446;-77
2022/11/20 07:33:36;;;;;;;21.33;19.13;;;0.30;99.90;;;;;;5103475;27;20283;-78
2022/11/20 07:36:02;;;;;;;22.70;19.90;;;0.30;99.90;;;;;;5113682;27;20659;-78
2022/11/20 07:38:28;;;;;;;19.90;17.83;;;0.30;99.90;;;;;;5112379;27;20051;-78
2022/11/20 07:40:56;;;;;;;21.13;18.97;;;0.40;99.90;;;;;;5115121;27;20035;-78
2022/11/20 07:43:21;;;;;;;22.00;19.73;;;0.30;99.90;;;;;;5103333;27;20058;-77
2022/11/20 07:45:47;;;;;;;21.13;19.00;;;0.40;99.90;;;;;;5069039;27;20040;-78
2022/11/20 07:48:13;;;;;;;21.20;19.10;;;0.30;99.90;;;;;;5125426;27;20044;-78
2022/11/20 07:50:39;;;;;;;20.13;18.13;;;0.40;99.90;;;;;;5096504;27;20058;-78
2022/11/20 07:53:05;;;;;;;20.53;18.43;;;0.40;99.90;;;;;;5126908;27;20443;-78
2022/11/20 07:55:32;;;;;;;19.80;17.80;;;0.40;99.90;;;;;;5085784;27;20089;-78
2022/11/20 07:58:00;;;;;;;19.40;17.50;;;0.40;99.90;;;;;;5118677;27;20051;-78
2022/11/20 08:00:27;;;;;;;19.50;17.50;;;0.50;99.90;;;;;;5116737;27;20397;-78
2022/11/20 08:02:53;;;;;;;18.23;16.33;;;0.40;99.90;;;;;;5121212;27;20050;-78
2022/11/20 08:05:18;;;;;;;18.43;16.63;;;0.40;99.90;;;;;;5116764;27;20222;-78
2022/11/20 08:07:45;;;;;;;18.13;16.27;;;0.40;99.90;;;;;;5118334;27;20031;-78
2022/11/20 08:10:13;;;;;;;18.63;16.67;;;0.50;99.90;;;;;;5095774;27;20042;-78
2022/11/20 08:15:31;;;;;;;17.70;15.80;;;0.50;99.90;;;;;;5112503;27;20043;-78
2022/11/20 08:18:05;;;;;;;18.17;16.37;;;0.50;99.90;;;;;;5097287;27;20059;-78
2022/11/20 08:20:31;;;;;;;18.87;16.87;;;0.50;99.90;;;;;;5116819;27;20589;-78
2022/11/20 08:23:02;;;;;;;20.53;18.33;;;0.50;99.90;;;;;;5115100;27;20047;-78
2022/11/20 08:25:29;;;;;;;20.90;18.70;;;0.60;99.90;;;;;;5133680;27;20050;-78
2022/11/20 08:27:59;;;;;;;18.93;17.03;;;0.60;99.90;;;;;;5114703;27;20074;-78
2022/11/20 08:30:26;;;;;;;19.98;17.27;;;0.60;99.90;;;;;;5123971;27;21581;-78
2022/11/20 08:32:52;;;;;;;18.37;16.50;;;0.60;99.90;;;;;;5111981;27;20333;-78
2022/11/20 08:35:18;;;;;;;17.70;15.87;;;0.70;99.90;;;;;;5107706;27;20074;-78
2022/11/20 08:37:46;;;;;;;18.17;16.33;;;0.70;99.90;;;;;;5112535;27;20090;-77
2022/11/20 08:40:12;;;;;;;17.70;16.00;;;0.80;99.90;;;;;;5116786;27;20494;-77
2022/11/20 08:42:49;;;;;;;17.73;15.93;;;0.70;99.90;;;;;;5097667;27;20062;-77
2022/11/20 08:45:16;;;;;;;16.63;15.03;;;0.80;99.90;;;;;;5118337;27;20057;-77
2022/11/20 08:47:43;;;;;;;17.00;15.30;;;0.80;99.90;;;;;;5110503;27;20062;-77
2022/11/20 08:50:13;;;;;;;16.87;15.17;;;0.80;99.90;;;;;;5117673;27;20047;-77
2022/11/20 08:52:39;;;;;;;18.10;16.27;;;0.80;99.90;;;;;;5123780;27;20168;-77
2022/11/20 08:55:06;;;;;;;17.07;15.37;;;0.90;99.90;;;;;;5126322;27;20050;-77
2022/11/20 08:57:33;;;;;;;16.83;15.23;;;0.80;99.90;;;;;;5114085;27;20054;-77
2022/11/20 08:59:59;;;;;;;16.97;15.27;;;0.80;99.90;;;;;;5099834;27;20505;-77
2022/11/20 09:02:25;;;;;;;16.27;14.67;;;0.90;99.90;;;;;;5108299;27;20039;-77
2022/11/20 09:04:51;;;;;;;14.67;13.20;;;0.90;99.90;;;;;;5141604;27;20039;-76
2022/11/20 09:07:17;;;;;;;16.77;15.07;;;0.90;99.90;;;;;;5117051;27;20614;-76
2022/11/20 09:09:43;;;;;;;16.20;14.60;;;0.90;99.90;;;;;;5105123;27;20082;-76
2022/11/20 09:12:09;;;;;;;16.00;14.30;;;1.00;99.90;;;;;;5098713;27;20035;-76
2022/11/20 09:14:34;;;;;;;16.33;14.73;;;1.10;99.90;;;;;;5114751;27;20043;-76
2022/11/20 09:17:00;;;;;;;16.23;14.63;;;1.00;99.90;;;;;;5120153;27;20494;-76
2022/11/20 09:19:26;;;;;;;16.00;14.40;;;1.00;99.90;;;;;;5119008;27;20046;-76
2022/11/20 09:21:52;;;;;;;16.03;14.33;;;1.10;99.90;;;;;;5111407;27;20063;-76
2022/11/20 09:24:18;;;;;;;16.33;14.73;;;1.10;99.90;;;;;;5115954;27;20039;-76
2022/11/20 09:26:44;;;;;;;15.93;14.43;;;1.10;99.90;;;;;;5115780;27;20498;-76
2022/11/20 09:29:10;;;;;;;15.50;13.67;;;1.20;99.90;;;;;;5085645;28;20077;-75
2022/11/20 09:31:36;;;;;;;15.03;13.50;;;1.20;99.90;;;;;;5089922;27;20054;-76
2022/11/20 09:34:02;;;;;;;15.40;13.83;;;1.20;99.90;;;;;;5134467;27;20092;-76
2022/11/20 09:36:31;;;;;;;16.00;14.30;;;1.30;99.90;;;;;;5098050;28;20070;-75
2022/11/20 09:38:56;;;;;;;16.00;14.33;;;1.30;99.90;;;;;;5096166;28;20512;-75
2022/11/20 09:41:38;;;;;;;15.83;14.23;;;1.30;99.90;;;;;;5074628;27;20032;-75
2022/11/20 09:44:52;;;;;;;15.20;13.70;;;1.30;99.90;;;;;;5086020;28;20382;-76
2022/11/20 09:47:31;;;;;;;15.03;13.50;;;1.40;99.90;;;;;;5033419;28;20056;-76
2022/11/20 09:50:39;;;;;;;14.37;12.80;;;1.40;99.90;;;;;;5101413;27;20056;-76
2022/11/20 09:53:11;;;;;;;15.10;13.60;;;1.50;99.90;;;;;;5135859;27;20090;-75
2022/11/20 09:55:37;;;;;;;15.03;13.53;;;1.50;99.90;;;;;;5144588;27;20035;-75
2022/11/20 09:58:07;;;;;;;15.17;13.47;;;1.50;99.90;;;;;;5107094;27;20134;-76
2022/11/20 10:00:36;;;;;;;15.60;13.70;;;1.50;99.90;;;;;;5105771;27;20130;-76
2022/11/20 10:03:33;;;;;;;14.97;13.43;;;1.60;99.90;;;;;;5105691;27;20271;-75
2022/11/20 10:06:02;;;;;;;14.90;13.40;;;1.60;99.90;;;;;;5112678;27;20115;-74
2022/11/20 10:08:43;;;;;;;15.03;13.33;;;1.80;99.90;;;;;;5136438;27;20063;-75
2022/11/20 10:11:29;;;;;;;16.63;13.87;;;1.70;99.90;;;;;;5099618;28;20051;-75
2022/11/20 10:14:16;;;;;;;16.33;14.27;;;1.80;99.90;;;;;;5079757;28;20414;-75
2022/11/20 10:17:16;;;;;;;15.93;14.33;;;1.80;99.90;;;;;;5115770;27;20300;-75
2022/11/20 10:19:57;;;;;;;14.60;13.13;;;1.90;99.90;;;;;;5115115;27;20091;-75
2022/11/20 10:22:50;;;;;;;15.03;13.43;;;1.90;99.90;;;;;;5092669;27;20063;-75
2022/11/20 10:25:46;;;;;;;15.40;13.83;;;1.90;99.90;;;;;;5110826;27;20145;-75
2022/11/20 10:28:14;;;;;;;14.40;12.90;;;2.00;99.90;;;;;;5070983;27;20138;-75
2022/11/20 10:30:43;;;;;;;14.63;13.13;;;2.00;99.90;;;;;;5135105;27;20521;-75
2022/11/20 10:33:19;;;;;;;13.73;12.33;;;2.00;99.90;;;;;;5097817;27;20043;-76
2022/11/20 10:35:49;;;;;;;12.77;11.47;;;2.10;99.90;;;;;;5104772;27;20464;-76
2022/11/20 10:38:44;;;;;;;12.95;11.65;;;2.10;99.90;;;;;;5113047;27;20295;-76
2022/11/20 10:41:24;;;;;;;14.27;12.67;;;2.10;99.90;;;;;;5091827;27;20082;-76
2022/11/20 10:44:01;;;;;;;13.13;11.75;;;2.20;99.90;;;;;;5103555;27;20048;-76
2022/11/20 10:46:44;;;;;;;14.37;12.87;;;2.20;99.90;;;;;;5116009;27;20134;-76
2022/11/20 10:49:16;;;;;;;14.40;12.90;;;2.30;99.90;;;;;;5107566;27;20051;-76
2022/11/20 10:52:06;;;;;;;14.30;12.90;;;2.40;99.90;;;;;;5095897;27;20301;-76
2022/11/20 10:54:45;;;;;;;14.80;12.10;;;2.30;99.90;;;;;;5135107;27;20347;-76
2022/11/20 10:57:44;;;;;;;15.13;13.53;;;2.40;99.90;;;;;;5100110;27;20121;-75
2022/11/20 11:00:13;;;;;;;14.90;13.30;;;2.40;99.90;;;;;;5106316;27;20054;-76
2022/11/20 11:02:50;;;;;;;14.13;12.73;;;2.40;99.90;;;;;;5107921;27;20054;-76
2022/11/20 11:05:22;;;;;;;14.03;12.63;;;2.50;99.90;;;;;;5105538;27;20057;-75
2022/11/20 11:07:55;;;;;;;14.83;13.20;;;2.50;99.90;;;;;;5107462;27;20043;-75
2022/11/20 11:10:33;;;;;;;13.67;12.33;;;2.60;99.90;;;;;;5125616;27;20117;-74
2022/11/20 11:13:02;;;;;;;14.13;12.67;;;2.60;99.90;;;;;;5103674;27;20043;-75
2022/11/20 11:15:39;;;;;;;12.83;11.43;;;2.60;99.90;;;;;;5132180;27;20044;-75
2022/11/20 11:18:08;;;;;;;13.67;11.47;;;2.70;99.90;;;;;;5134364;27;20544;-75
2022/11/20 11:20:34;;;;;;;11.63;10.43;;;2.70;99.90;;;;;;5126909;27;20044;-75
2022/11/20 11:23:00;;;;;;;11.20;10.00;;;2.80;99.90;;;;;;5090166;27;20115;-75
2022/11/20 11:25:36;;;;;;;11.30;10.20;;;2.70;99.90;;;;;;5127605;27;20146;-75
2022/11/20 11:28:21;;;;;;;12.30;10.67;;;2.80;99.90;;;;;;5110927;27;20468;-75
2022/11/20 11:30:50;;;;;;;11.27;10.07;;;2.80;99.90;;;;;;5103002;27;20044;-75
2022/11/20 11:33:27;;;;;;;12.63;10.57;;;2.80;99.90;;;;;;5102543;27;20112;-74
2022/11/20 11:35:59;;;;;;;12.23;10.97;;;2.90;99.90;;;;;;5104315;27;20047;-75
2022/11/20 11:38:36;;;;;;;13.83;11.47;;;2.90;99.90;;;;;;5096509;27;20051;-75
2022/11/20 11:41:04;;;;;;;12.13;10.63;;;3.00;99.90;;;;;;5097012;27;20056;-75
2022/11/20 11:46:31;;;;;;;11.83;10.50;;;3.00;99.90;;;;;;5104888;27;20178;-75
2022/11/20 11:49:09;;;;;;;12.17;10.87;;;3.10;99.90;;;;;;5138381;27;20497;-75
2022/11/20 11:51:50;;;;;;;12.40;11.20;;;3.10;99.90;;;;;;5107530;27;20562;-75
2022/11/20 11:54:38;;;;;;;11.95;10.13;;;3.10;99.90;;;;;;5089142;28;20048;-75
2022/11/20 11:57:23;;;;;;;10.70;9.60;;;3.20;99.90;;;;;;5085604;27;20062;-75
2022/11/20 12:00:10;;;;;;;11.50;10.40;;;3.30;99.90;;;;;;5106754;27;20220;-75
2022/11/20 12:02:38;;;;;;;11.20;10.10;;;3.40;99.90;;;;;;5074894;27;20050;-76
2022/11/20 12:05:17;;;;;;;12.77;11.33;;;3.50;99.90;;;;;;5087637;28;20454;-77
2022/11/20 12:08:02;;;;;;;12.67;11.43;;;3.50;99.90;;;;;;5107762;27;20076;-76
2022/11/20 12:10:55;;;;;;;11.53;10.33;;;3.60;99.90;;;;;;5084222;28;20059;-76
2022/11/20 12:13:33;;;;;;;11.10;10.00;;;3.70;99.90;;;;;;5128187;27;20043;-76
2022/11/20 12:16:03;;;;;;;12.13;10.83;;;3.70;99.90;;;;;;5111797;27;20585;-76
2022/11/20 12:18:30;;;;;;;12.55;10.88;;;3.70;99.90;;;;;;5108256;27;20046;-76
2022/11/20 12:21:08;;;;;;;11.67;10.57;;;3.70;99.90;;;;;;5109001;27;21330;-76
2022/11/20 12:23:37;;;;;;;10.65;9.55;;;3.70;99.90;;;;;;5140066;27;20039;-76
2022/11/20 12:26:13;;;;;;;10.20;9.20;;;3.80;99.90;;;;;;5131687;27;20051;-76
2022/11/20 12:28:42;;;;;;;10.33;9.23;;;3.70;99.90;;;;;;5101922;27;20074;-76
2022/11/20 12:31:44;;;;;;;8.93;8.03;;;3.70;99.90;;;;;;5093831;27;20045;-76
2022/11/20 12:34:31;;;;;;;9.25;8.35;;;3.70;99.90;;;;;;5020967;28;20649;-76
2022/11/20 12:37:22;;;;;;;9.83;8.30;;;3.60;99.90;;;;;;5112327;27;20055;-76
2022/11/20 12:39:50;;;;;;;8.05;7.22;;;3.60;99.90;;;;;;5107865;27;20074;-76
2022/11/20 12:45:44;;;;;;;8.50;7.63;;;3.50;99.90;;;;;;5114007;27;20043;-76
2022/11/20 12:48:28;;;;;;;9.00;7.75;;;3.60;99.90;;;;;;5113700;27;20562;-76
2022/11/20 12:51:23;;;;;;;9.30;8.40;;;3.60;99.90;;;;;;5148070;27;20058;-76
2022/11/20 12:54:11;;;;;;;9.90;8.87;;;3.60;99.90;;;;;;5102027;27;20043;-76
2022/11/20 12:56:49;;;;;;;10.47;7.93;;;3.60;99.90;;;;;;5132180;27;20051;-74
2022/11/20 12:59:20;;;;;;;8.77;7.78;;;3.60;99.90;;;;;;5123086;27;20118;-74